Аэропорт: Национальный аэропорт Минск. Минск

ICAO: UMMS

METAR:
2019-09-21 16:15:00
UMMS 211615Z 26005G08MPS 8000 OVC005 10/10 Q1012 R31R/290057 R31L/290050 NOSIG RMK QBB150
METAR:
2019-09-21 11:00:00
TAF UMMS 211100Z 2111/2212 23005G10MPS 4000 -RA BR OVC004 TEMPO 2111/2120 25009G14MPS 1200 SHRA OVC002 BKN012CB BECMG 2120/2122 27006MPS 6000 NSW BKN005 TEMPO 2122/2206 29007G12MPS 1500 BR BKN003 BECMG 2206/2208 29007G12MPS BKN015 TEMPO 2208/2212 32010G15MPS 2000 SHRA BKN012CB